sensor_id;sensor_type;location;lat;lon;timestamp;P1;durP1;ratioP1;P2;durP2;ratioP2
3337;SDS011;1682;49.286;10.788;2023-04-25T00:01:30;4.10;;;3.33;;
3337;SDS011;1682;49.286;10.788;2023-04-25T00:03:58;4.20;;;3.60;;
3337;SDS011;1682;49.286;10.788;2023-04-25T00:06:27;4.60;;;4.17;;
3337;SDS011;1682;49.286;10.788;2023-04-25T00:08:55;3.60;;;3.30;;
3337;SDS011;1682;49.286;10.788;2023-04-25T00:11:23;3.63;;;3.33;;
3337;SDS011;1682;49.286;10.788;2023-04-25T00:13:51;3.87;;;3.60;;
3337;SDS011;1682;49.286;10.788;2023-04-25T00:16:19;4.17;;;3.70;;
3337;SDS011;1682;49.286;10.788;2023-04-25T00:18:46;4.40;;;4.00;;
3337;SDS011;1682;49.286;10.788;2023-04-25T00:21:16;7.60;;;6.80;;
3337;SDS011;1682;49.286;10.788;2023-04-25T00:23:44;4.57;;;4.17;;
3337;SDS011;1682;49.286;10.788;2023-04-25T00:26:12;4.53;;;4.13;;
3337;SDS011;1682;49.286;10.788;2023-04-25T00:28:40;4.70;;;4.30;;
3337;SDS011;1682;49.286;10.788;2023-04-25T00:31:08;4.90;;;4.20;;
3337;SDS011;1682;49.286;10.788;2023-04-25T00:33:35;4.87;;;4.37;;
3337;SDS011;1682;49.286;10.788;2023-04-25T00:36:02;5.57;;;4.47;;
3337;SDS011;1682;49.286;10.788;2023-04-25T00:38:30;4.00;;;3.70;;
3337;SDS011;1682;49.286;10.788;2023-04-25T00:40:57;4.70;;;3.90;;
3337;SDS011;1682;49.286;10.788;2023-04-25T00:43:25;4.20;;;3.80;;
3337;SDS011;1682;49.286;10.788;2023-04-25T00:45:54;3.83;;;3.23;;
3337;SDS011;1682;49.286;10.788;2023-04-25T00:48:22;3.43;;;3.17;;
3337;SDS011;1682;49.286;10.788;2023-04-25T00:50:51;4.77;;;3.80;;
3337;SDS011;1682;49.286;10.788;2023-04-25T00:53:18;7.33;;;5.50;;
3337;SDS011;1682;49.286;10.788;2023-04-25T00:55:45;4.53;;;4.17;;
3337;SDS011;1682;49.286;10.788;2023-04-25T00:58:13;5.50;;;4.27;;
3337;SDS011;1682;49.286;10.788;2023-04-25T01:00:40;4.83;;;3.80;;
3337;SDS011;1682;49.286;10.788;2023-04-25T01:03:09;5.90;;;4.23;;
3337;SDS011;1682;49.286;10.788;2023-04-25T01:05:36;3.97;;;3.37;;
3337;SDS011;1682;49.286;10.788;2023-04-25T01:08:04;5.17;;;4.30;;
3337;SDS011;1682;49.286;10.788;2023-04-25T01:10:31;10.80;;;3.90;;
3337;SDS011;1682;49.286;10.788;2023-04-25T01:12:58;3.70;;;3.40;;
3337;SDS011;1682;49.286;10.788;2023-04-25T01:15:25;8.60;;;5.20;;
3337;SDS011;1682;49.286;10.788;2023-04-25T01:17:53;5.07;;;4.37;;
3337;SDS011;1682;49.286;10.788;2023-04-25T01:20:22;3.90;;;3.60;;
3337;SDS011;1682;49.286;10.788;2023-04-25T01:22:51;4.53;;;4.10;;
3337;SDS011;1682;49.286;10.788;2023-04-25T01:25:20;3.80;;;3.60;;
3337;SDS011;1682;49.286;10.788;2023-04-25T01:27:47;4.33;;;3.93;;
3337;SDS011;1682;49.286;10.788;2023-04-25T01:30:15;4.57;;;4.13;;
3337;SDS011;1682;49.286;10.788;2023-04-25T01:32:50;5.17;;;4.67;;
3337;SDS011;1682;49.286;10.788;2023-04-25T01:35:18;4.50;;;4.10;;
3337;SDS011;1682;49.286;10.788;2023-04-25T01:37:45;4.03;;;3.73;;
3337;SDS011;1682;49.286;10.788;2023-04-25T01:40:14;4.77;;;4.10;;
3337;SDS011;1682;49.286;10.788;2023-04-25T01:42:42;5.83;;;4.30;;
3337;SDS011;1682;49.286;10.788;2023-04-25T01:45:10;5.10;;;4.60;;
3337;SDS011;1682;49.286;10.788;2023-04-25T01:47:38;4.33;;;3.93;;
3337;SDS011;1682;49.286;10.788;2023-04-25T01:50:08;5.83;;;4.30;;
3337;SDS011;1682;49.286;10.788;2023-04-25T01:52:36;4.63;;;4.23;;
3337;SDS011;1682;49.286;10.788;2023-04-25T01:55:03;5.23;;;4.73;;
3337;SDS011;1682;49.286;10.788;2023-04-25T01:57:32;4.77;;;4.40;;
3337;SDS011;1682;49.286;10.788;2023-04-25T02:00:00;6.80;;;4.67;;
3337;SDS011;1682;49.286;10.788;2023-04-25T02:02:28;5.20;;;4.30;;
3337;SDS011;1682;49.286;10.788;2023-04-25T02:04:55;4.33;;;3.93;;
3337;SDS011;1682;49.286;10.788;2023-04-25T02:07:23;5.20;;;4.73;;
3337;SDS011;1682;49.286;10.788;2023-04-25T02:09:50;6.70;;;4.33;;
3337;SDS011;1682;49.286;10.788;2023-04-25T02:12:17;5.53;;;4.90;;
3337;SDS011;1682;49.286;10.788;2023-04-25T02:14:46;8.30;;;4.60;;
3337;SDS011;1682;49.286;10.788;2023-04-25T02:17:13;6.30;;;5.07;;
3337;SDS011;1682;49.286;10.788;2023-04-25T02:19:41;5.30;;;4.60;;
3337;SDS011;1682;49.286;10.788;2023-04-25T02:22:08;5.63;;;4.63;;
3337;SDS011;1682;49.286;10.788;2023-04-25T02:24:35;5.70;;;4.30;;
3337;SDS011;1682;49.286;10.788;2023-04-25T02:27:02;5.10;;;4.60;;
3337;SDS011;1682;49.286;10.788;2023-04-25T02:29:30;7.83;;;4.43;;
3337;SDS011;1682;49.286;10.788;2023-04-25T02:31:58;11.30;;;7.03;;
3337;SDS011;1682;49.286;10.788;2023-04-25T02:34:25;14.00;;;8.37;;
3337;SDS011;1682;49.286;10.788;2023-04-25T02:36:53;6.10;;;5.20;;
3337;SDS011;1682;49.286;10.788;2023-04-25T02:39:20;5.67;;;5.07;;
3337;SDS011;1682;49.286;10.788;2023-04-25T02:41:50;5.87;;;5.27;;
3337;SDS011;1682;49.286;10.788;2023-04-25T02:44:17;9.80;;;5.30;;
3337;SDS011;1682;49.286;10.788;2023-04-25T02:46:45;5.10;;;4.70;;
3337;SDS011;1682;49.286;10.788;2023-04-25T02:49:13;8.53;;;4.40;;
3337;SDS011;1682;49.286;10.788;2023-04-25T02:51:40;6.30;;;5.50;;
3337;SDS011;1682;49.286;10.788;2023-04-25T02:54:08;6.30;;;5.73;;
3337;SDS011;1682;49.286;10.788;2023-04-25T02:56:35;5.97;;;5.30;;
3337;SDS011;1682;49.286;10.788;2023-04-25T02:59:02;8.00;;;4.43;;
3337;SDS011;1682;49.286;10.788;2023-04-25T03:01:29;6.07;;;5.47;;
3337;SDS011;1682;49.286;10.788;2023-04-25T03:03:57;6.20;;;4.90;;
3337;SDS011;1682;49.286;10.788;2023-04-25T03:06:25;5.77;;;4.70;;
3337;SDS011;1682;49.286;10.788;2023-04-25T03:08:52;4.93;;;4.37;;
3337;SDS011;1682;49.286;10.788;2023-04-25T03:11:19;6.17;;;4.37;;
3337;SDS011;1682;49.286;10.788;2023-04-25T03:13:47;5.07;;;4.57;;
3337;SDS011;1682;49.286;10.788;2023-04-25T03:16:14;4.37;;;3.93;;
3337;SDS011;1682;49.286;10.788;2023-04-25T03:18:41;6.20;;;4.80;;
3337;SDS011;1682;49.286;10.788;2023-04-25T03:21:08;8.60;;;5.77;;
3337;SDS011;1682;49.286;10.788;2023-04-25T03:23:37;5.23;;;4.13;;
3337;SDS011;1682;49.286;10.788;2023-04-25T03:26:04;7.20;;;3.93;;
3337;SDS011;1682;49.286;10.788;2023-04-25T03:28:31;5.07;;;3.70;;
3337;SDS011;1682;49.286;10.788;2023-04-25T03:30:58;4.93;;;4.50;;
3337;SDS011;1682;49.286;10.788;2023-04-25T03:33:26;4.40;;;4.10;;
3337;SDS011;1682;49.286;10.788;2023-04-25T03:35:53;3.93;;;3.37;;
3337;SDS011;1682;49.286;10.788;2023-04-25T03:38:20;6.73;;;5.63;;
3337;SDS011;1682;49.286;10.788;2023-04-25T03:40:49;3.80;;;3.50;;
3337;SDS011;1682;49.286;10.788;2023-04-25T03:43:16;4.03;;;3.63;;
3337;SDS011;1682;49.286;10.788;2023-04-25T03:45:43;4.50;;;3.80;;
3337;SDS011;1682;49.286;10.788;2023-04-25T03:48:11;3.90;;;3.70;;
3337;SDS011;1682;49.286;10.788;2023-04-25T03:50:38;4.43;;;3.60;;
3337;SDS011;1682;49.286;10.788;2023-04-25T03:53:05;3.40;;;3.20;;
3337;SDS011;1682;49.286;10.788;2023-04-25T03:55:32;5.07;;;4.17;;
3337;SDS011;1682;49.286;10.788;2023-04-25T03:58:01;5.03;;;4.53;;
3337;SDS011;1682;49.286;10.788;2023-04-25T04:00:28;4.90;;;4.43;;
3337;SDS011;1682;49.286;10.788;2023-04-25T04:02:55;3.80;;;3.60;;
3337;SDS011;1682;49.286;10.788;2023-04-25T04:05:23;5.70;;;5.30;;
3337;SDS011;1682;49.286;10.788;2023-04-25T04:07:50;5.73;;;5.23;;
3337;SDS011;1682;49.286;10.788;2023-04-25T04:10:17;3.97;;;3.67;;
3337;SDS011;1682;49.286;10.788;2023-04-25T04:12:45;3.83;;;3.40;;
3337;SDS011;1682;49.286;10.788;2023-04-25T04:15:13;3.47;;;3.17;;
3337;SDS011;1682;49.286;10.788;2023-04-25T04:17:40;3.37;;;3.07;;
3337;SDS011;1682;49.286;10.788;2023-04-25T04:20:08;4.23;;;3.93;;
3337;SDS011;1682;49.286;10.788;2023-04-25T04:22:36;4.77;;;4.37;;
3337;SDS011;1682;49.286;10.788;2023-04-25T04:25:03;3.70;;;3.40;;
3337;SDS011;1682;49.286;10.788;2023-04-25T04:27:31;5.03;;;3.80;;
3337;SDS011;1682;49.286;10.788;2023-04-25T04:29:59;3.07;;;2.87;;
3337;SDS011;1682;49.286;10.788;2023-04-25T04:32:29;4.43;;;4.13;;
3337;SDS011;1682;49.286;10.788;2023-04-25T04:34:58;7.40;;;6.63;;
3337;SDS011;1682;49.286;10.788;2023-04-25T04:37:25;5.07;;;4.67;;
3337;SDS011;1682;49.286;10.788;2023-04-25T04:39:53;6.37;;;5.20;;
3337;SDS011;1682;49.286;10.788;2023-04-25T04:42:20;4.40;;;4.10;;
3337;SDS011;1682;49.286;10.788;2023-04-25T04:44:49;4.60;;;4.07;;
3337;SDS011;1682;49.286;10.788;2023-04-25T04:47:17;5.13;;;4.70;;
3337;SDS011;1682;49.286;10.788;2023-04-25T04:49:46;6.93;;;4.30;;
3337;SDS011;1682;49.286;10.788;2023-04-25T04:52:13;6.40;;;3.60;;
3337;SDS011;1682;49.286;10.788;2023-04-25T04:54:40;3.73;;;3.43;;
3337;SDS011;1682;49.286;10.788;2023-04-25T04:57:08;6.90;;;6.40;;
3337;SDS011;1682;49.286;10.788;2023-04-25T04:59:35;4.70;;;4.30;;
3337;SDS011;1682;49.286;10.788;2023-04-25T05:02:02;5.20;;;4.80;;
3337;SDS011;1682;49.286;10.788;2023-04-25T05:04:29;4.00;;;3.70;;
3337;SDS011;1682;49.286;10.788;2023-04-25T05:06:58;3.63;;;3.33;;
3337;SDS011;1682;49.286;10.788;2023-04-25T05:09:26;3.97;;;3.67;;
3337;SDS011;1682;49.286;10.788;2023-04-25T05:11:53;4.23;;;3.83;;
3337;SDS011;1682;49.286;10.788;2023-04-25T05:14:20;6.07;;;4.50;;
3337;SDS011;1682;49.286;10.788;2023-04-25T05:16:48;4.50;;;4.10;;
3337;SDS011;1682;49.286;10.788;2023-04-25T05:19:15;4.50;;;4.17;;
3337;SDS011;1682;49.286;10.788;2023-04-25T05:21:42;4.43;;;3.83;;
3337;SDS011;1682;49.286;10.788;2023-04-25T05:24:11;5.17;;;4.67;;
3337;SDS011;1682;49.286;10.788;2023-04-25T05:26:38;5.17;;;4.77;;
3337;SDS011;1682;49.286;10.788;2023-04-25T05:29:05;5.20;;;4.80;;
3337;SDS011;1682;49.286;10.788;2023-04-25T05:31:33;4.77;;;4.40;;
3337;SDS011;1682;49.286;10.788;2023-04-25T05:34:00;10.27;;;5.93;;
3337;SDS011;1682;49.286;10.788;2023-04-25T05:36:27;6.67;;;5.10;;
3337;SDS011;1682;49.286;10.788;2023-04-25T05:38:56;4.37;;;4.07;;
3337;SDS011;1682;49.286;10.788;2023-04-25T05:41:24;5.00;;;4.70;;
3337;SDS011;1682;49.286;10.788;2023-04-25T05:43:51;7.80;;;5.20;;
3337;SDS011;1682;49.286;10.788;2023-04-25T05:46:19;5.53;;;4.73;;
3337;SDS011;1682;49.286;10.788;2023-04-25T05:48:46;7.17;;;5.97;;
3337;SDS011;1682;49.286;10.788;2023-04-25T05:51:13;6.80;;;5.10;;
3337;SDS011;1682;49.286;10.788;2023-04-25T05:53:41;6.00;;;4.80;;
3337;SDS011;1682;49.286;10.788;2023-04-25T05:56:08;6.10;;;5.50;;
3337;SDS011;1682;49.286;10.788;2023-04-25T05:58:37;5.63;;;5.13;;
3337;SDS011;1682;49.286;10.788;2023-04-25T06:01:05;5.13;;;4.47;;
3337;SDS011;1682;49.286;10.788;2023-04-25T06:03:32;4.97;;;4.47;;
3337;SDS011;1682;49.286;10.788;2023-04-25T06:05:59;7.43;;;5.50;;
3337;SDS011;1682;49.286;10.788;2023-04-25T06:08:27;5.00;;;4.50;;
3337;SDS011;1682;49.286;10.788;2023-04-25T06:10:54;7.50;;;5.20;;
3337;SDS011;1682;49.286;10.788;2023-04-25T06:13:21;5.00;;;4.60;;
3337;SDS011;1682;49.286;10.788;2023-04-25T06:15:50;4.93;;;4.47;;
3337;SDS011;1682;49.286;10.788;2023-04-25T06:18:17;6.10;;;4.50;;
3337;SDS011;1682;49.286;10.788;2023-04-25T06:20:44;4.60;;;4.20;;
3337;SDS011;1682;49.286;10.788;2023-04-25T06:23:11;8.60;;;4.77;;
3337;SDS011;1682;49.286;10.788;2023-04-25T06:25:38;9.13;;;4.80;;
3337;SDS011;1682;49.286;10.788;2023-04-25T06:28:05;6.57;;;5.33;;
3337;SDS011;1682;49.286;10.788;2023-04-25T06:30:33;7.13;;;5.40;;
3337;SDS011;1682;49.286;10.788;2023-04-25T06:33:01;5.47;;;4.97;;
3337;SDS011;1682;49.286;10.788;2023-04-25T06:35:28;5.57;;;4.67;;
3337;SDS011;1682;49.286;10.788;2023-04-25T06:37:56;7.57;;;5.10;;
3337;SDS011;1682;49.286;10.788;2023-04-25T06:40:23;6.53;;;5.57;;
3337;SDS011;1682;49.286;10.788;2023-04-25T06:42:50;9.90;;;7.37;;
3337;SDS011;1682;49.286;10.788;2023-04-25T06:45:17;7.47;;;5.80;;
3337;SDS011;1682;49.286;10.788;2023-04-25T06:47:45;10.03;;;5.80;;
3337;SDS011;1682;49.286;10.788;2023-04-25T06:50:13;6.87;;;5.20;;
3337;SDS011;1682;49.286;10.788;2023-04-25T06:52:41;5.90;;;5.30;;
3337;SDS011;1682;49.286;10.788;2023-04-25T06:55:08;7.13;;;5.87;;
3337;SDS011;1682;49.286;10.788;2023-04-25T06:57:35;7.07;;;5.63;;
3337;SDS011;1682;49.286;10.788;2023-04-25T07:00:03;6.40;;;5.63;;
3337;SDS011;1682;49.286;10.788;2023-04-25T07:02:33;6.10;;;5.60;;
3337;SDS011;1682;49.286;10.788;2023-04-25T07:05:01;7.47;;;6.33;;
3337;SDS011;1682;49.286;10.788;2023-04-25T07:07:30;10.77;;;6.37;;
3337;SDS011;1682;49.286;10.788;2023-04-25T07:09:57;5.87;;;5.20;;
3337;SDS011;1682;49.286;10.788;2023-04-25T07:12:25;6.40;;;5.37;;
3337;SDS011;1682;49.286;10.788;2023-04-25T07:14:52;6.30;;;5.77;;
3337;SDS011;1682;49.286;10.788;2023-04-25T07:17:20;5.20;;;4.70;;
3337;SDS011;1682;49.286;10.788;2023-04-25T07:19:47;5.73;;;5.13;;
3337;SDS011;1682;49.286;10.788;2023-04-25T07:22:14;6.70;;;5.50;;
3337;SDS011;1682;49.286;10.788;2023-04-25T07:24:43;4.10;;;3.83;;
3337;SDS011;1682;49.286;10.788;2023-04-25T07:27:13;4.90;;;4.33;;
3337;SDS011;1682;49.286;10.788;2023-04-25T07:29:40;4.53;;;4.13;;
3337;SDS011;1682;49.286;10.788;2023-04-25T07:32:08;8.13;;;4.47;;
3337;SDS011;1682;49.286;10.788;2023-04-25T07:34:36;5.33;;;4.70;;
3337;SDS011;1682;49.286;10.788;2023-04-25T07:37:04;6.37;;;3.90;;
3337;SDS011;1682;49.286;10.788;2023-04-25T07:39:31;9.63;;;5.43;;
3337;SDS011;1682;49.286;10.788;2023-04-25T07:42:00;4.33;;;4.03;;
3337;SDS011;1682;49.286;10.788;2023-04-25T07:44:27;5.63;;;4.93;;
3337;SDS011;1682;49.286;10.788;2023-04-25T07:46:55;5.87;;;5.37;;
3337;SDS011;1682;49.286;10.788;2023-04-25T07:49:22;5.20;;;4.47;;
3337;SDS011;1682;49.286;10.788;2023-04-25T07:51:49;5.43;;;4.97;;
3337;SDS011;1682;49.286;10.788;2023-04-25T07:54:17;5.10;;;4.70;;
3337;SDS011;1682;49.286;10.788;2023-04-25T07:56:44;4.73;;;4.33;;
3337;SDS011;1682;49.286;10.788;2023-04-25T07:59:12;4.67;;;4.27;;
3337;SDS011;1682;49.286;10.788;2023-04-25T08:01:40;5.07;;;3.67;;
3337;SDS011;1682;49.286;10.788;2023-04-25T08:04:07;3.50;;;3.20;;
3337;SDS011;1682;49.286;10.788;2023-04-25T08:06:34;3.53;;;3.23;;
3337;SDS011;1682;49.286;10.788;2023-04-25T08:09:01;3.00;;;2.80;;
3337;SDS011;1682;49.286;10.788;2023-04-25T08:11:29;4.20;;;3.10;;
3337;SDS011;1682;49.286;10.788;2023-04-25T08:13:56;5.20;;;3.03;;
3337;SDS011;1682;49.286;10.788;2023-04-25T08:16:25;2.77;;;2.50;;
3337;SDS011;1682;49.286;10.788;2023-04-25T08:18:52;3.63;;;3.33;;
3337;SDS011;1682;49.286;10.788;2023-04-25T08:21:19;2.93;;;2.73;;
3337;SDS011;1682;49.286;10.788;2023-04-25T08:23:46;3.40;;;3.10;;
3337;SDS011;1682;49.286;10.788;2023-04-25T08:26:14;2.93;;;2.73;;
3337;SDS011;1682;49.286;10.788;2023-04-25T08:28:41;3.73;;;3.40;;
3337;SDS011;1682;49.286;10.788;2023-04-25T08:31:08;5.53;;;5.03;;
3337;SDS011;1682;49.286;10.788;2023-04-25T08:33:37;2.97;;;2.77;;
3337;SDS011;1682;49.286;10.788;2023-04-25T08:36:04;3.97;;;3.67;;
3337;SDS011;1682;49.286;10.788;2023-04-25T08:38:31;4.10;;;3.60;;
3337;SDS011;1682;49.286;10.788;2023-04-25T08:40:59;3.30;;;3.00;;
3337;SDS011;1682;49.286;10.788;2023-04-25T08:43:27;5.73;;;4.33;;
3337;SDS011;1682;49.286;10.788;2023-04-25T08:45:56;4.90;;;4.10;;
3337;SDS011;1682;49.286;10.788;2023-04-25T08:48:26;8.00;;;3.93;;
3337;SDS011;1682;49.286;10.788;2023-04-25T08:50:55;3.87;;;3.57;;
3337;SDS011;1682;49.286;10.788;2023-04-25T08:53:25;4.40;;;4.00;;
3337;SDS011;1682;49.286;10.788;2023-04-25T08:55:52;5.27;;;4.33;;
3337;SDS011;1682;49.286;10.788;2023-04-25T08:58:20;5.53;;;4.87;;
3337;SDS011;1682;49.286;10.788;2023-04-25T09:00:48;7.67;;;4.37;;
3337;SDS011;1682;49.286;10.788;2023-04-25T09:03:15;6.90;;;4.20;;
3337;SDS011;1682;49.286;10.788;2023-04-25T09:05:46;8.27;;;7.60;;
3337;SDS011;1682;49.286;10.788;2023-04-25T09:08:14;4.43;;;4.10;;
3337;SDS011;1682;49.286;10.788;2023-04-25T09:10:42;4.30;;;3.60;;
3337;SDS011;1682;49.286;10.788;2023-04-25T09:13:10;7.93;;;4.70;;
3337;SDS011;1682;49.286;10.788;2023-04-25T09:15:47;4.40;;;4.07;;
3337;SDS011;1682;49.286;10.788;2023-04-25T09:18:25;6.13;;;5.07;;
3337;SDS011;1682;49.286;10.788;2023-04-25T09:20:53;4.97;;;4.47;;
3337;SDS011;1682;49.286;10.788;2023-04-25T09:23:22;4.40;;;3.50;;
3337;SDS011;1682;49.286;10.788;2023-04-25T09:25:51;3.83;;;3.53;;
3337;SDS011;1682;49.286;10.788;2023-04-25T09:28:22;4.37;;;4.00;;
3337;SDS011;1682;49.286;10.788;2023-04-25T09:30:54;4.90;;;4.43;;
3337;SDS011;1682;49.286;10.788;2023-04-25T09:33:23;4.23;;;3.83;;
3337;SDS011;1682;49.286;10.788;2023-04-25T09:35:53;7.30;;;4.20;;
3337;SDS011;1682;49.286;10.788;2023-04-25T09:38:23;11.37;;;3.07;;
3337;SDS011;1682;49.286;10.788;2023-04-25T09:40:51;4.23;;;3.83;;
3337;SDS011;1682;49.286;10.788;2023-04-25T09:43:19;6.23;;;4.87;;
3337;SDS011;1682;49.286;10.788;2023-04-25T09:45:46;7.23;;;5.00;;
3337;SDS011;1682;49.286;10.788;2023-04-25T09:48:17;3.60;;;3.30;;
3337;SDS011;1682;49.286;10.788;2023-04-25T09:50:45;5.20;;;3.70;;
3337;SDS011;1682;49.286;10.788;2023-04-25T09:53:12;7.10;;;3.77;;
3337;SDS011;1682;49.286;10.788;2023-04-25T09:55:41;3.70;;;3.20;;
3337;SDS011;1682;49.286;10.788;2023-04-25T09:58:09;3.70;;;3.40;;
3337;SDS011;1682;49.286;10.788;2023-04-25T10:00:38;5.07;;;3.90;;
3337;SDS011;1682;49.286;10.788;2023-04-25T10:03:06;3.03;;;2.83;;
3337;SDS011;1682;49.286;10.788;2023-04-25T10:05:34;4.00;;;3.70;;
3337;SDS011;1682;49.286;10.788;2023-04-25T10:08:02;5.43;;;3.87;;
3337;SDS011;1682;49.286;10.788;2023-04-25T10:10:30;4.00;;;3.50;;
3337;SDS011;1682;49.286;10.788;2023-04-25T10:13:04;3.93;;;3.63;;
3337;SDS011;1682;49.286;10.788;2023-04-25T10:15:34;5.03;;;3.43;;
3337;SDS011;1682;49.286;10.788;2023-04-25T10:18:02;3.73;;;3.43;;
3337;SDS011;1682;49.286;10.788;2023-04-25T10:20:29;4.27;;;3.80;;
3337;SDS011;1682;49.286;10.788;2023-04-25T10:22:58;5.47;;;3.73;;
3337;SDS011;1682;49.286;10.788;2023-04-25T10:25:30;7.77;;;4.60;;
3337;SDS011;1682;49.286;10.788;2023-04-25T10:27:59;5.10;;;3.57;;
3337;SDS011;1682;49.286;10.788;2023-04-25T10:30:28;4.87;;;4.00;;
3337;SDS011;1682;49.286;10.788;2023-04-25T10:32:55;5.20;;;3.87;;
3337;SDS011;1682;49.286;10.788;2023-04-25T10:35:24;3.07;;;2.77;;
3337;SDS011;1682;49.286;10.788;2023-04-25T10:37:56;12.10;;;4.40;;
3337;SDS011;1682;49.286;10.788;2023-04-25T10:40:23;4.63;;;4.23;;
3337;SDS011;1682;49.286;10.788;2023-04-25T10:42:51;3.57;;;3.23;;
3337;SDS011;1682;49.286;10.788;2023-04-25T10:45:19;4.50;;;3.40;;
3337;SDS011;1682;49.286;10.788;2023-04-25T10:47:48;3.10;;;2.90;;
3337;SDS011;1682;49.286;10.788;2023-04-25T10:50:15;4.33;;;3.20;;
3337;SDS011;1682;49.286;10.788;2023-04-25T10:52:42;10.77;;;3.43;;
3337;SDS011;1682;49.286;10.788;2023-04-25T10:55:10;3.73;;;3.10;;
3337;SDS011;1682;49.286;10.788;2023-04-25T10:57:40;3.93;;;3.23;;
3337;SDS011;1682;49.286;10.788;2023-04-25T11:00:10;4.63;;;3.00;;
3337;SDS011;1682;49.286;10.788;2023-04-25T11:02:40;4.23;;;2.50;;
3337;SDS011;1682;49.286;10.788;2023-04-25T11:05:09;3.60;;;3.37;;
3337;SDS011;1682;49.286;10.788;2023-04-25T11:07:44;3.47;;;3.00;;
3337;SDS011;1682;49.286;10.788;2023-04-25T11:10:12;4.13;;;3.83;;
3337;SDS011;1682;49.286;10.788;2023-04-25T11:12:40;3.70;;;3.40;;
3337;SDS011;1682;49.286;10.788;2023-04-25T11:15:08;2.60;;;2.40;;
3337;SDS011;1682;49.286;10.788;2023-04-25T11:17:36;3.80;;;2.60;;
3337;SDS011;1682;49.286;10.788;2023-04-25T11:20:06;5.10;;;2.60;;
3337;SDS011;1682;49.286;10.788;2023-04-25T11:22:37;3.93;;;2.50;;
3337;SDS011;1682;49.286;10.788;2023-04-25T11:25:07;4.30;;;3.20;;
3337;SDS011;1682;49.286;10.788;2023-04-25T11:27:37;4.90;;;3.17;;
3337;SDS011;1682;49.286;10.788;2023-04-25T11:30:11;5.63;;;2.77;;
3337;SDS011;1682;49.286;10.788;2023-04-25T11:32:39;3.63;;;2.77;;
3337;SDS011;1682;49.286;10.788;2023-04-25T11:35:07;4.67;;;2.90;;
3337;SDS011;1682;49.286;10.788;2023-04-25T11:37:34;5.00;;;3.33;;
3337;SDS011;1682;49.286;10.788;2023-04-25T11:40:03;3.47;;;2.63;;
3337;SDS011;1682;49.286;10.788;2023-04-25T11:42:31;3.00;;;2.80;;
3337;SDS011;1682;49.286;10.788;2023-04-25T11:44:59;2.57;;;2.30;;
3337;SDS011;1682;49.286;10.788;2023-04-25T11:47:30;5.83;;;2.90;;
3337;SDS011;1682;49.286;10.788;2023-04-25T11:49:57;2.97;;;2.77;;
3337;SDS011;1682;49.286;10.788;2023-04-25T11:52:34;3.00;;;2.17;;
3337;SDS011;1682;49.286;10.788;2023-04-25T11:55:05;4.07;;;2.30;;
3337;SDS011;1682;49.286;10.788;2023-04-25T11:57:33;2.60;;;2.43;;
3337;SDS011;1682;49.286;10.788;2023-04-25T12:00:07;3.63;;;2.00;;
3337;SDS011;1682;49.286;10.788;2023-04-25T12:02:36;2.77;;;1.90;;
3337;SDS011;1682;49.286;10.788;2023-04-25T12:05:05;2.73;;;2.53;;
3337;SDS011;1682;49.286;10.788;2023-04-25T12:07:34;2.27;;;1.90;;
3337;SDS011;1682;49.286;10.788;2023-04-25T12:10:05;2.20;;;2.10;;
3337;SDS011;1682;49.286;10.788;2023-04-25T12:12:33;3.83;;;2.40;;
3337;SDS011;1682;49.286;10.788;2023-04-25T12:15:11;2.90;;;2.70;;
3337;SDS011;1682;49.286;10.788;2023-04-25T12:17:40;2.40;;;2.20;;
3337;SDS011;1682;49.286;10.788;2023-04-25T12:20:08;2.13;;;2.03;;
3337;SDS011;1682;49.286;10.788;2023-04-25T12:22:36;2.80;;;2.57;;
3337;SDS011;1682;49.286;10.788;2023-04-25T12:25:04;2.00;;;1.90;;
3337;SDS011;1682;49.286;10.788;2023-04-25T12:27:35;4.10;;;2.07;;
3337;SDS011;1682;49.286;10.788;2023-04-25T12:30:02;4.10;;;1.77;;
3337;SDS011;1682;49.286;10.788;2023-04-25T12:32:30;3.80;;;2.13;;
3337;SDS011;1682;49.286;10.788;2023-04-25T12:34:57;3.07;;;2.30;;
3337;SDS011;1682;49.286;10.788;2023-04-25T12:37:24;3.60;;;2.40;;
3337;SDS011;1682;49.286;10.788;2023-04-25T12:39:52;1.83;;;1.73;;
3337;SDS011;1682;49.286;10.788;2023-04-25T12:42:19;2.33;;;2.13;;
3337;SDS011;1682;49.286;10.788;2023-04-25T12:44:48;1.97;;;1.87;;
3337;SDS011;1682;49.286;10.788;2023-04-25T12:47:15;3.17;;;1.83;;
3337;SDS011;1682;49.286;10.788;2023-04-25T12:49:42;4.03;;;2.27;;
3337;SDS011;1682;49.286;10.788;2023-04-25T12:52:09;3.97;;;2.43;;
3337;SDS011;1682;49.286;10.788;2023-04-25T12:54:37;2.30;;;2.10;;
3337;SDS011;1682;49.286;10.788;2023-04-25T12:57:04;1.63;;;1.53;;
3337;SDS011;1682;49.286;10.788;2023-04-25T12:59:31;3.47;;;2.37;;
3337;SDS011;1682;49.286;10.788;2023-04-25T13:02:00;2.53;;;2.10;;
3337;SDS011;1682;49.286;10.788;2023-04-25T13:04:28;3.00;;;1.97;;
3337;SDS011;1682;49.286;10.788;2023-04-25T13:06:55;5.03;;;2.70;;
3337;SDS011;1682;49.286;10.788;2023-04-25T13:09:22;3.27;;;2.97;;
3337;SDS011;1682;49.286;10.788;2023-04-25T13:11:50;1.90;;;1.80;;
3337;SDS011;1682;49.286;10.788;2023-04-25T13:14:17;5.33;;;4.00;;
3337;SDS011;1682;49.286;10.788;2023-04-25T13:16:44;4.40;;;1.87;;
3337;SDS011;1682;49.286;10.788;2023-04-25T13:19:13;2.30;;;2.20;;
3337;SDS011;1682;49.286;10.788;2023-04-25T13:21:40;2.75;;;2.55;;
3337;SDS011;1682;49.286;10.788;2023-04-25T13:24:07;3.57;;;2.47;;
3337;SDS011;1682;49.286;10.788;2023-04-25T13:26:35;2.77;;;2.57;;
3337;SDS011;1682;49.286;10.788;2023-04-25T13:29:02;2.93;;;2.73;;
3337;SDS011;1682;49.286;10.788;2023-04-25T13:31:30;3.23;;;2.67;;
3337;SDS011;1682;49.286;10.788;2023-04-25T13:33:57;2.60;;;2.40;;
3337;SDS011;1682;49.286;10.788;2023-04-25T13:36:26;2.50;;;2.23;;
3337;SDS011;1682;49.286;10.788;2023-04-25T13:38:54;2.97;;;2.60;;
3337;SDS011;1682;49.286;10.788;2023-04-25T13:41:21;2.73;;;2.53;;
3337;SDS011;1682;49.286;10.788;2023-04-25T13:43:48;4.53;;;3.00;;
3337;SDS011;1682;49.286;10.788;2023-04-25T13:46:15;3.07;;;2.43;;
3337;SDS011;1682;49.286;10.788;2023-04-25T13:48:43;3.43;;;3.00;;
3337;SDS011;1682;49.286;10.788;2023-04-25T13:51:14;3.57;;;2.87;;
3337;SDS011;1682;49.286;10.788;2023-04-25T13:53:43;3.57;;;3.00;;
3337;SDS011;1682;49.286;10.788;2023-04-25T13:56:11;2.40;;;2.20;;
3337;SDS011;1682;49.286;10.788;2023-04-25T13:58:39;3.07;;;2.77;;
3337;SDS011;1682;49.286;10.788;2023-04-25T14:01:06;3.27;;;2.97;;
3337;SDS011;1682;49.286;10.788;2023-04-25T14:03:33;3.40;;;2.80;;
3337;SDS011;1682;49.286;10.788;2023-04-25T14:06:00;2.83;;;2.50;;
3337;SDS011;1682;49.286;10.788;2023-04-25T14:08:28;2.90;;;2.43;;
3337;SDS011;1682;49.286;10.788;2023-04-25T14:10:56;3.10;;;2.80;;
3337;SDS011;1682;49.286;10.788;2023-04-25T14:13:23;2.90;;;2.67;;
3337;SDS011;1682;49.286;10.788;2023-04-25T14:15:51;3.97;;;2.80;;
3337;SDS011;1682;49.286;10.788;2023-04-25T14:18:18;2.93;;;2.73;;
3337;SDS011;1682;49.286;10.788;2023-04-25T14:20:45;3.60;;;3.03;;
3337;SDS011;1682;49.286;10.788;2023-04-25T14:23:12;2.50;;;2.30;;
3337;SDS011;1682;49.286;10.788;2023-04-25T14:25:40;4.60;;;3.10;;
3337;SDS011;1682;49.286;10.788;2023-04-25T14:28:09;3.23;;;3.00;;
3337;SDS011;1682;49.286;10.788;2023-04-25T14:30:36;2.30;;;2.10;;
3337;SDS011;1682;49.286;10.788;2023-04-25T14:33:04;2.30;;;2.20;;
3337;SDS011;1682;49.286;10.788;2023-04-25T14:35:31;2.80;;;2.60;;
3337;SDS011;1682;49.286;10.788;2023-04-25T14:37:58;3.17;;;2.83;;
3337;SDS011;1682;49.286;10.788;2023-04-25T14:40:25;2.90;;;2.53;;
3337;SDS011;1682;49.286;10.788;2023-04-25T14:42:53;2.20;;;2.00;;
3337;SDS011;1682;49.286;10.788;2023-04-25T14:45:21;3.93;;;2.00;;
3337;SDS011;1682;49.286;10.788;2023-04-25T14:47:49;4.40;;;3.50;;
3337;SDS011;1682;49.286;10.788;2023-04-25T14:50:16;4.13;;;3.40;;
3337;SDS011;1682;49.286;10.788;2023-04-25T14:52:43;2.60;;;2.40;;
3337;SDS011;1682;49.286;10.788;2023-04-25T14:55:11;4.40;;;2.90;;
3337;SDS011;1682;49.286;10.788;2023-04-25T14:57:39;2.50;;;1.90;;
3337;SDS011;1682;49.286;10.788;2023-04-25T15:00:06;3.20;;;2.60;;
3337;SDS011;1682;49.286;10.788;2023-04-25T15:02:35;2.90;;;2.63;;
3337;SDS011;1682;49.286;10.788;2023-04-25T15:05:03;2.90;;;2.70;;